sensor_id;sensor_type;location;lat;lon;timestamp;P1;durP1;ratioP1;P2;durP2;ratioP2
23561;SDS011;11959;49.418;8.728;2023-04-25T00:00:52;7.22;;;5.45;;
23561;SDS011;11959;49.418;8.728;2023-04-25T00:03:18;6.18;;;4.78;;
23561;SDS011;11959;49.418;8.728;2023-04-25T00:05:44;6.93;;;5.10;;
23561;SDS011;11959;49.418;8.728;2023-04-25T00:08:10;7.25;;;5.65;;
23561;SDS011;11959;49.418;8.728;2023-04-25T00:10:36;7.20;;;5.10;;
23561;SDS011;11959;49.418;8.728;2023-04-25T00:13:01;6.93;;;4.80;;
23561;SDS011;11959;49.418;8.728;2023-04-25T00:15:27;7.28;;;5.68;;
23561;SDS011;11959;49.418;8.728;2023-04-25T00:17:55;6.15;;;5.07;;
23561;SDS011;11959;49.418;8.728;2023-04-25T00:20:21;6.03;;;5.00;;
23561;SDS011;11959;49.418;8.728;2023-04-25T00:22:48;7.00;;;5.18;;
23561;SDS011;11959;49.418;8.728;2023-04-25T00:25:14;6.75;;;5.25;;
23561;SDS011;11959;49.418;8.728;2023-04-25T00:27:40;6.60;;;5.55;;
23561;SDS011;11959;49.418;8.728;2023-04-25T00:30:07;7.47;;;5.60;;
23561;SDS011;11959;49.418;8.728;2023-04-25T00:32:33;7.43;;;5.10;;
23561;SDS011;11959;49.418;8.728;2023-04-25T00:34:59;8.60;;;6.40;;
23561;SDS011;11959;49.418;8.728;2023-04-25T00:37:24;8.15;;;5.75;;
23561;SDS011;11959;49.418;8.728;2023-04-25T00:39:50;6.82;;;5.70;;
23561;SDS011;11959;49.418;8.728;2023-04-25T00:42:18;7.72;;;5.78;;
23561;SDS011;11959;49.418;8.728;2023-04-25T00:44:44;6.40;;;5.18;;
23561;SDS011;11959;49.418;8.728;2023-04-25T00:47:10;8.45;;;5.80;;
23561;SDS011;11959;49.418;8.728;2023-04-25T00:49:36;6.45;;;5.55;;
23561;SDS011;11959;49.418;8.728;2023-04-25T00:52:02;7.25;;;5.50;;
23561;SDS011;11959;49.418;8.728;2023-04-25T00:54:28;7.22;;;5.22;;
23561;SDS011;11959;49.418;8.728;2023-04-25T00:56:55;8.50;;;5.70;;
23561;SDS011;11959;49.418;8.728;2023-04-25T00:59:20;6.43;;;5.40;;
23561;SDS011;11959;49.418;8.728;2023-04-25T01:01:46;8.70;;;5.45;;
23561;SDS011;11959;49.418;8.728;2023-04-25T01:04:12;6.25;;;5.50;;
23561;SDS011;11959;49.418;8.728;2023-04-25T01:06:38;6.30;;;4.82;;
23561;SDS011;11959;49.418;8.728;2023-04-25T01:09:04;7.57;;;4.85;;
23561;SDS011;11959;49.418;8.728;2023-04-25T01:11:30;6.32;;;4.95;;
23561;SDS011;11959;49.418;8.728;2023-04-25T01:13:56;6.30;;;5.00;;
23561;SDS011;11959;49.418;8.728;2023-04-25T01:16:22;8.52;;;5.60;;
23561;SDS011;11959;49.418;8.728;2023-04-25T01:18:49;6.38;;;4.90;;
23561;SDS011;11959;49.418;8.728;2023-04-25T01:21:16;7.20;;;5.50;;
23561;SDS011;11959;49.418;8.728;2023-04-25T01:23:42;5.70;;;4.75;;
23561;SDS011;11959;49.418;8.728;2023-04-25T01:26:11;6.32;;;4.60;;
23561;SDS011;11959;49.418;8.728;2023-04-25T01:28:37;7.00;;;4.80;;
23561;SDS011;11959;49.418;8.728;2023-04-25T01:31:06;5.97;;;4.82;;
23561;SDS011;11959;49.418;8.728;2023-04-25T01:33:32;8.40;;;5.60;;
23561;SDS011;11959;49.418;8.728;2023-04-25T01:35:58;6.75;;;5.22;;
23561;SDS011;11959;49.418;8.728;2023-04-25T01:38:24;6.18;;;4.80;;
23561;SDS011;11959;49.418;8.728;2023-04-25T01:40:50;6.60;;;4.88;;
23561;SDS011;11959;49.418;8.728;2023-04-25T01:43:17;6.40;;;5.20;;
23561;SDS011;11959;49.418;8.728;2023-04-25T01:45:42;6.80;;;5.35;;
23561;SDS011;11959;49.418;8.728;2023-04-25T01:48:09;6.68;;;5.20;;
23561;SDS011;11959;49.418;8.728;2023-04-25T01:50:37;7.47;;;5.43;;
23561;SDS011;11959;49.418;8.728;2023-04-25T01:53:03;6.60;;;5.25;;
23561;SDS011;11959;49.418;8.728;2023-04-25T01:55:30;7.38;;;5.40;;
23561;SDS011;11959;49.418;8.728;2023-04-25T01:57:55;7.28;;;5.55;;
23561;SDS011;11959;49.418;8.728;2023-04-25T02:00:21;6.50;;;4.57;;
23561;SDS011;11959;49.418;8.728;2023-04-25T02:02:48;7.03;;;4.93;;
23561;SDS011;11959;49.418;8.728;2023-04-25T02:05:15;6.78;;;5.28;;
23561;SDS011;11959;49.418;8.728;2023-04-25T02:07:41;8.00;;;5.50;;
23561;SDS011;11959;49.418;8.728;2023-04-25T02:10:07;7.18;;;5.65;;
23561;SDS011;11959;49.418;8.728;2023-04-25T02:12:34;7.22;;;5.85;;
23561;SDS011;11959;49.418;8.728;2023-04-25T02:15:00;7.18;;;5.72;;
23561;SDS011;11959;49.418;8.728;2023-04-25T02:17:26;8.20;;;5.60;;
23561;SDS011;11959;49.418;8.728;2023-04-25T02:19:52;7.55;;;5.43;;
23561;SDS011;11959;49.418;8.728;2023-04-25T02:22:17;7.13;;;5.22;;
23561;SDS011;11959;49.418;8.728;2023-04-25T02:24:43;7.65;;;5.68;;
23561;SDS011;11959;49.418;8.728;2023-04-25T02:27:09;8.65;;;6.45;;
23561;SDS011;11959;49.418;8.728;2023-04-25T02:29:34;7.80;;;6.13;;
23561;SDS011;11959;49.418;8.728;2023-04-25T02:32:00;8.38;;;6.20;;
23561;SDS011;11959;49.418;8.728;2023-04-25T02:34:26;9.43;;;6.13;;
23561;SDS011;11959;49.418;8.728;2023-04-25T02:36:51;10.35;;;7.15;;
23561;SDS011;11959;49.418;8.728;2023-04-25T02:39:17;8.68;;;6.22;;
23561;SDS011;11959;49.418;8.728;2023-04-25T02:41:43;9.05;;;6.88;;
23561;SDS011;11959;49.418;8.728;2023-04-25T02:44:08;9.15;;;7.10;;
23561;SDS011;11959;49.418;8.728;2023-04-25T02:46:34;13.27;;;8.77;;
23561;SDS011;11959;49.418;8.728;2023-04-25T02:49:00;13.55;;;8.15;;
23561;SDS011;11959;49.418;8.728;2023-04-25T02:51:26;12.25;;;8.60;;
23561;SDS011;11959;49.418;8.728;2023-04-25T02:53:53;14.38;;;10.05;;
23561;SDS011;11959;49.418;8.728;2023-04-25T02:56:18;14.57;;;10.27;;
23561;SDS011;11959;49.418;8.728;2023-04-25T02:58:44;14.25;;;9.15;;
23561;SDS011;11959;49.418;8.728;2023-04-25T03:01:10;14.30;;;10.23;;
23561;SDS011;11959;49.418;8.728;2023-04-25T03:03:36;15.30;;;10.70;;
23561;SDS011;11959;49.418;8.728;2023-04-25T03:06:01;16.10;;;10.45;;
23561;SDS011;11959;49.418;8.728;2023-04-25T03:08:27;16.25;;;10.52;;
23561;SDS011;11959;49.418;8.728;2023-04-25T03:10:57;16.35;;;10.48;;
23561;SDS011;11959;49.418;8.728;2023-04-25T03:13:23;14.50;;;9.70;;
23561;SDS011;11959;49.418;8.728;2023-04-25T03:15:49;13.43;;;9.85;;
23561;SDS011;11959;49.418;8.728;2023-04-25T03:18:15;13.90;;;9.90;;
23561;SDS011;11959;49.418;8.728;2023-04-25T03:20:40;13.45;;;9.43;;
23561;SDS011;11959;49.418;8.728;2023-04-25T03:23:08;12.77;;;9.20;;
23561;SDS011;11959;49.418;8.728;2023-04-25T03:25:33;13.05;;;9.05;;
23561;SDS011;11959;49.418;8.728;2023-04-25T03:27:59;15.23;;;10.10;;
23561;SDS011;11959;49.418;8.728;2023-04-25T03:30:24;13.55;;;9.32;;
23561;SDS011;11959;49.418;8.728;2023-04-25T03:32:50;12.95;;;9.18;;
23561;SDS011;11959;49.418;8.728;2023-04-25T03:35:16;13.02;;;8.70;;
23561;SDS011;11959;49.418;8.728;2023-04-25T03:37:41;13.43;;;9.75;;
23561;SDS011;11959;49.418;8.728;2023-04-25T03:40:10;14.38;;;10.27;;
23561;SDS011;11959;49.418;8.728;2023-04-25T03:42:36;13.38;;;9.10;;
23561;SDS011;11959;49.418;8.728;2023-04-25T03:45:02;13.57;;;9.02;;
23561;SDS011;11959;49.418;8.728;2023-04-25T03:47:28;15.90;;;9.45;;
23561;SDS011;11959;49.418;8.728;2023-04-25T03:49:54;12.93;;;9.13;;
23561;SDS011;11959;49.418;8.728;2023-04-25T03:52:20;11.73;;;8.65;;
23561;SDS011;11959;49.418;8.728;2023-04-25T03:54:45;11.18;;;8.75;;
23561;SDS011;11959;49.418;8.728;2023-04-25T03:57:11;11.98;;;8.98;;
23561;SDS011;11959;49.418;8.728;2023-04-25T03:59:37;14.05;;;9.00;;
23561;SDS011;11959;49.418;8.728;2023-04-25T04:02:02;14.77;;;9.85;;
23561;SDS011;11959;49.418;8.728;2023-04-25T04:04:28;11.98;;;9.07;;
23561;SDS011;11959;49.418;8.728;2023-04-25T04:06:54;13.52;;;9.15;;
23561;SDS011;11959;49.418;8.728;2023-04-25T04:09:20;12.75;;;8.88;;
23561;SDS011;11959;49.418;8.728;2023-04-25T04:11:45;13.25;;;9.23;;
23561;SDS011;11959;49.418;8.728;2023-04-25T04:14:11;12.95;;;8.77;;
23561;SDS011;11959;49.418;8.728;2023-04-25T04:16:37;11.70;;;8.43;;
23561;SDS011;11959;49.418;8.728;2023-04-25T04:19:02;10.73;;;8.00;;
23561;SDS011;11959;49.418;8.728;2023-04-25T04:21:28;11.02;;;8.07;;
23561;SDS011;11959;49.418;8.728;2023-04-25T04:23:55;12.05;;;8.80;;
23561;SDS011;11959;49.418;8.728;2023-04-25T04:26:22;12.73;;;8.13;;
23561;SDS011;11959;49.418;8.728;2023-04-25T04:28:51;11.27;;;8.13;;
23561;SDS011;11959;49.418;8.728;2023-04-25T04:31:19;13.90;;;8.10;;
23561;SDS011;11959;49.418;8.728;2023-04-25T04:33:46;12.30;;;9.13;;
23561;SDS011;11959;49.418;8.728;2023-04-25T04:36:12;12.93;;;9.48;;
23561;SDS011;11959;49.418;8.728;2023-04-25T04:38:38;10.55;;;7.68;;
23561;SDS011;11959;49.418;8.728;2023-04-25T04:41:05;14.10;;;9.55;;
23561;SDS011;11959;49.418;8.728;2023-04-25T04:43:31;14.20;;;9.30;;
23561;SDS011;11959;49.418;8.728;2023-04-25T04:45:58;13.38;;;9.30;;
23561;SDS011;11959;49.418;8.728;2023-04-25T04:48:25;12.38;;;8.93;;
23561;SDS011;11959;49.418;8.728;2023-04-25T04:50:51;12.80;;;9.18;;
23561;SDS011;11959;49.418;8.728;2023-04-25T04:53:17;13.80;;;9.20;;
23561;SDS011;11959;49.418;8.728;2023-04-25T04:55:43;14.15;;;10.10;;
23561;SDS011;11959;49.418;8.728;2023-04-25T04:58:08;13.40;;;9.80;;
23561;SDS011;11959;49.418;8.728;2023-04-25T05:00:34;15.52;;;10.50;;
23561;SDS011;11959;49.418;8.728;2023-04-25T05:02:59;12.88;;;8.75;;
23561;SDS011;11959;49.418;8.728;2023-04-25T05:05:25;12.23;;;9.27;;
23561;SDS011;11959;49.418;8.728;2023-04-25T05:07:51;13.45;;;9.23;;
23561;SDS011;11959;49.418;8.728;2023-04-25T05:10:17;14.05;;;10.10;;
23561;SDS011;11959;49.418;8.728;2023-04-25T05:12:44;15.13;;;10.52;;
23561;SDS011;11959;49.418;8.728;2023-04-25T05:15:10;13.88;;;9.75;;
23561;SDS011;11959;49.418;8.728;2023-04-25T05:17:36;14.20;;;10.02;;
23561;SDS011;11959;49.418;8.728;2023-04-25T05:20:02;13.82;;;9.20;;
23561;SDS011;11959;49.418;8.728;2023-04-25T05:22:30;12.88;;;9.10;;
23561;SDS011;11959;49.418;8.728;2023-04-25T05:24:56;14.70;;;10.73;;
23561;SDS011;11959;49.418;8.728;2023-04-25T05:27:21;13.82;;;10.18;;
23561;SDS011;11959;49.418;8.728;2023-04-25T05:29:47;16.00;;;10.77;;
23561;SDS011;11959;49.418;8.728;2023-04-25T05:32:13;16.80;;;10.57;;
23561;SDS011;11959;49.418;8.728;2023-04-25T05:34:38;14.18;;;10.43;;
23561;SDS011;11959;49.418;8.728;2023-04-25T05:37:05;15.00;;;10.38;;
23561;SDS011;11959;49.418;8.728;2023-04-25T05:39:31;15.43;;;10.75;;
23561;SDS011;11959;49.418;8.728;2023-04-25T05:41:56;15.30;;;10.93;;
23561;SDS011;11959;49.418;8.728;2023-04-25T05:44:22;17.42;;;11.30;;
23561;SDS011;11959;49.418;8.728;2023-04-25T05:46:48;15.05;;;11.10;;
23561;SDS011;11959;49.418;8.728;2023-04-25T05:49:14;15.15;;;11.38;;
23561;SDS011;11959;49.418;8.728;2023-04-25T05:51:39;14.90;;;10.65;;
23561;SDS011;11959;49.418;8.728;2023-04-25T05:54:05;18.23;;;12.65;;
23561;SDS011;11959;49.418;8.728;2023-04-25T05:56:31;16.65;;;12.13;;
23561;SDS011;11959;49.418;8.728;2023-04-25T05:58:56;18.20;;;12.70;;
23561;SDS011;11959;49.418;8.728;2023-04-25T06:01:22;18.13;;;12.85;;
23561;SDS011;11959;49.418;8.728;2023-04-25T06:03:48;19.15;;;12.43;;
23561;SDS011;11959;49.418;8.728;2023-04-25T06:06:14;16.67;;;11.48;;
23561;SDS011;11959;49.418;8.728;2023-04-25T06:08:40;15.35;;;11.05;;
23561;SDS011;11959;49.418;8.728;2023-04-25T06:11:06;21.77;;;13.13;;
23561;SDS011;11959;49.418;8.728;2023-04-25T06:13:32;16.40;;;11.95;;
23561;SDS011;11959;49.418;8.728;2023-04-25T06:15:58;20.48;;;13.82;;
23561;SDS011;11959;49.418;8.728;2023-04-25T06:18:23;17.35;;;12.80;;
23561;SDS011;11959;49.418;8.728;2023-04-25T06:20:49;19.73;;;12.63;;
23561;SDS011;11959;49.418;8.728;2023-04-25T06:23:15;16.23;;;11.30;;
23561;SDS011;11959;49.418;8.728;2023-04-25T06:25:40;18.42;;;11.90;;
23561;SDS011;11959;49.418;8.728;2023-04-25T06:28:06;15.77;;;10.57;;
23561;SDS011;11959;49.418;8.728;2023-04-25T06:30:32;17.83;;;11.55;;
23561;SDS011;11959;49.418;8.728;2023-04-25T06:32:57;16.42;;;10.65;;
23561;SDS011;11959;49.418;8.728;2023-04-25T06:35:23;15.77;;;10.82;;
23561;SDS011;11959;49.418;8.728;2023-04-25T06:37:48;16.30;;;11.55;;
23561;SDS011;11959;49.418;8.728;2023-04-25T06:40:14;14.27;;;10.13;;
23561;SDS011;11959;49.418;8.728;2023-04-25T06:42:40;13.98;;;9.75;;
23561;SDS011;11959;49.418;8.728;2023-04-25T06:45:05;15.48;;;10.32;;
23561;SDS011;11959;49.418;8.728;2023-04-25T06:47:31;17.75;;;11.88;;
23561;SDS011;11959;49.418;8.728;2023-04-25T06:49:57;16.50;;;10.48;;
23561;SDS011;11959;49.418;8.728;2023-04-25T06:52:23;17.75;;;11.80;;
23561;SDS011;11959;49.418;8.728;2023-04-25T06:54:48;16.60;;;11.93;;
23561;SDS011;11959;49.418;8.728;2023-04-25T06:57:14;15.73;;;10.85;;
23561;SDS011;11959;49.418;8.728;2023-04-25T06:59:40;16.65;;;10.23;;
23561;SDS011;11959;49.418;8.728;2023-04-25T07:02:05;16.92;;;11.43;;
23561;SDS011;11959;49.418;8.728;2023-04-25T07:04:31;15.63;;;10.85;;
23561;SDS011;11959;49.418;8.728;2023-04-25T07:06:56;19.60;;;11.88;;
23561;SDS011;11959;49.418;8.728;2023-04-25T07:09:22;18.25;;;12.15;;
23561;SDS011;11959;49.418;8.728;2023-04-25T07:11:48;18.15;;;11.75;;
23561;SDS011;11959;49.418;8.728;2023-04-25T07:14:13;16.80;;;12.45;;
23561;SDS011;11959;49.418;8.728;2023-04-25T07:16:40;18.23;;;12.52;;
23561;SDS011;11959;49.418;8.728;2023-04-25T07:19:05;15.75;;;11.50;;
23561;SDS011;11959;49.418;8.728;2023-04-25T07:21:31;15.80;;;11.27;;
23561;SDS011;11959;49.418;8.728;2023-04-25T07:23:57;17.13;;;12.10;;
23561;SDS011;11959;49.418;8.728;2023-04-25T07:26:23;18.98;;;12.43;;
23561;SDS011;11959;49.418;8.728;2023-04-25T07:28:49;17.10;;;10.82;;
23561;SDS011;11959;49.418;8.728;2023-04-25T07:31:16;18.73;;;11.75;;
23561;SDS011;11959;49.418;8.728;2023-04-25T07:33:43;14.82;;;10.85;;
23561;SDS011;11959;49.418;8.728;2023-04-25T07:36:10;14.70;;;9.98;;
23561;SDS011;11959;49.418;8.728;2023-04-25T07:38:36;14.68;;;10.27;;
23561;SDS011;11959;49.418;8.728;2023-04-25T07:41:01;15.55;;;10.65;;
23561;SDS011;11959;49.418;8.728;2023-04-25T07:43:27;14.88;;;10.77;;
23561;SDS011;11959;49.418;8.728;2023-04-25T07:45:52;15.82;;;10.27;;
23561;SDS011;11959;49.418;8.728;2023-04-25T07:48:18;16.25;;;10.90;;
23561;SDS011;11959;49.418;8.728;2023-04-25T07:50:44;15.73;;;10.18;;
23561;SDS011;11959;49.418;8.728;2023-04-25T07:53:10;15.40;;;9.98;;
23561;SDS011;11959;49.418;8.728;2023-04-25T07:55:36;15.05;;;10.07;;
23561;SDS011;11959;49.418;8.728;2023-04-25T07:58:05;13.05;;;9.32;;
23561;SDS011;11959;49.418;8.728;2023-04-25T08:00:31;13.65;;;8.75;;
23561;SDS011;11959;49.418;8.728;2023-04-25T08:02:57;14.43;;;9.63;;
23561;SDS011;11959;49.418;8.728;2023-04-25T08:05:22;12.75;;;8.60;;
23561;SDS011;11959;49.418;8.728;2023-04-25T08:07:48;12.18;;;7.93;;
23561;SDS011;11959;49.418;8.728;2023-04-25T08:10:13;14.55;;;7.72;;
23561;SDS011;11959;49.418;8.728;2023-04-25T08:12:39;11.10;;;7.50;;
23561;SDS011;11959;49.418;8.728;2023-04-25T08:15:05;11.43;;;7.72;;
23561;SDS011;11959;49.418;8.728;2023-04-25T08:17:32;8.63;;;6.10;;
23561;SDS011;11959;49.418;8.728;2023-04-25T08:19:57;10.25;;;6.78;;
23561;SDS011;11959;49.418;8.728;2023-04-25T08:22:23;10.93;;;6.68;;
23561;SDS011;11959;49.418;8.728;2023-04-25T08:24:49;11.25;;;5.90;;
23561;SDS011;11959;49.418;8.728;2023-04-25T08:27:14;10.02;;;5.57;;
23561;SDS011;11959;49.418;8.728;2023-04-25T08:29:41;7.63;;;5.57;;
23561;SDS011;11959;49.418;8.728;2023-04-25T08:32:07;8.02;;;5.40;;
23561;SDS011;11959;49.418;8.728;2023-04-25T08:34:32;8.20;;;5.03;;
23561;SDS011;11959;49.418;8.728;2023-04-25T08:36:58;9.57;;;5.10;;
23561;SDS011;11959;49.418;8.728;2023-04-25T08:39:24;10.27;;;5.30;;
23561;SDS011;11959;49.418;8.728;2023-04-25T08:41:49;8.93;;;4.63;;
23561;SDS011;11959;49.418;8.728;2023-04-25T08:44:15;8.30;;;5.13;;
23561;SDS011;11959;49.418;8.728;2023-04-25T08:46:41;10.60;;;4.50;;
23561;SDS011;11959;49.418;8.728;2023-04-25T08:49:10;8.85;;;4.75;;
23561;SDS011;11959;49.418;8.728;2023-04-25T08:51:40;15.65;;;7.68;;
23561;SDS011;11959;49.418;8.728;2023-04-25T08:54:15;10.27;;;5.50;;
23561;SDS011;11959;49.418;8.728;2023-04-25T08:56:43;11.20;;;5.30;;
23561;SDS011;11959;49.418;8.728;2023-04-25T08:59:11;10.63;;;4.97;;
23561;SDS011;11959;49.418;8.728;2023-04-25T09:01:37;7.75;;;4.68;;
23561;SDS011;11959;49.418;8.728;2023-04-25T09:04:03;12.52;;;6.85;;
23561;SDS011;11959;49.418;8.728;2023-04-25T09:06:29;10.57;;;6.28;;
23561;SDS011;11959;49.418;8.728;2023-04-25T09:09:05;10.73;;;6.18;;
23561;SDS011;11959;49.418;8.728;2023-04-25T09:11:33;11.10;;;6.15;;
23561;SDS011;11959;49.418;8.728;2023-04-25T09:14:14;12.02;;;6.03;;
23561;SDS011;11959;49.418;8.728;2023-04-25T09:19:25;12.65;;;6.25;;
23561;SDS011;11959;49.418;8.728;2023-04-25T09:21:56;11.77;;;5.82;;
23561;SDS011;11959;49.418;8.728;2023-04-25T09:27:00;13.05;;;6.47;;
23561;SDS011;11959;49.418;8.728;2023-04-25T09:29:36;11.05;;;5.75;;
23561;SDS011;11959;49.418;8.728;2023-04-25T09:32:10;10.07;;;5.07;;
23561;SDS011;11959;49.418;8.728;2023-04-25T09:34:41;10.43;;;6.15;;
23561;SDS011;11959;49.418;8.728;2023-04-25T09:37:08;10.15;;;5.60;;
23561;SDS011;11959;49.418;8.728;2023-04-25T09:39:36;10.52;;;6.40;;
23561;SDS011;11959;49.418;8.728;2023-04-25T09:42:02;10.40;;;5.47;;
23561;SDS011;11959;49.418;8.728;2023-04-25T09:44:29;8.48;;;4.90;;
23561;SDS011;11959;49.418;8.728;2023-04-25T09:46:55;8.73;;;5.18;;
23561;SDS011;11959;49.418;8.728;2023-04-25T09:49:20;11.80;;;5.80;;
23561;SDS011;11959;49.418;8.728;2023-04-25T09:54:22;9.27;;;4.53;;
23561;SDS011;11959;49.418;8.728;2023-04-25T09:56:49;6.70;;;4.28;;
23561;SDS011;11959;49.418;8.728;2023-04-25T09:59:18;10.75;;;4.93;;
23561;SDS011;11959;49.418;8.728;2023-04-25T10:01:46;8.23;;;4.00;;
23561;SDS011;11959;49.418;8.728;2023-04-25T10:04:13;6.70;;;4.15;;
23561;SDS011;11959;49.418;8.728;2023-04-25T10:06:46;10.10;;;4.45;;
23561;SDS011;11959;49.418;8.728;2023-04-25T10:09:14;9.70;;;4.97;;
23561;SDS011;11959;49.418;8.728;2023-04-25T10:11:41;10.25;;;5.30;;
23561;SDS011;11959;49.418;8.728;2023-04-25T10:14:07;9.68;;;5.07;;
23561;SDS011;11959;49.418;8.728;2023-04-25T10:16:33;9.93;;;5.40;;
23561;SDS011;11959;49.418;8.728;2023-04-25T10:19:00;8.60;;;4.35;;
23561;SDS011;11959;49.418;8.728;2023-04-25T10:21:27;10.10;;;3.90;;
23561;SDS011;11959;49.418;8.728;2023-04-25T10:23:54;9.90;;;4.10;;
23561;SDS011;11959;49.418;8.728;2023-04-25T10:26:20;8.68;;;4.72;;
23561;SDS011;11959;49.418;8.728;2023-04-25T10:31:31;10.43;;;4.32;;
23561;SDS011;11959;49.418;8.728;2023-04-25T10:33:57;8.10;;;4.25;;
23561;SDS011;11959;49.418;8.728;2023-04-25T10:36:24;6.55;;;4.43;;
23561;SDS011;11959;49.418;8.728;2023-04-25T10:38:52;8.85;;;4.43;;
23561;SDS011;11959;49.418;8.728;2023-04-25T10:41:19;10.77;;;5.20;;
23561;SDS011;11959;49.418;8.728;2023-04-25T10:43:48;10.18;;;5.18;;
23561;SDS011;11959;49.418;8.728;2023-04-25T10:46:25;10.65;;;4.60;;
23561;SDS011;11959;49.418;8.728;2023-04-25T10:48:53;9.15;;;4.32;;
23561;SDS011;11959;49.418;8.728;2023-04-25T10:51:23;9.52;;;4.75;;
23561;SDS011;11959;49.418;8.728;2023-04-25T10:56:20;9.82;;;4.80;;
23561;SDS011;11959;49.418;8.728;2023-04-25T10:58:46;11.85;;;5.18;;
23561;SDS011;11959;49.418;8.728;2023-04-25T11:01:13;13.23;;;5.30;;
23561;SDS011;11959;49.418;8.728;2023-04-25T11:03:41;7.93;;;4.80;;
23561;SDS011;11959;49.418;8.728;2023-04-25T11:06:34;7.78;;;4.70;;
23561;SDS011;11959;49.418;8.728;2023-04-25T11:09:02;10.38;;;5.10;;
23561;SDS011;11959;49.418;8.728;2023-04-25T11:11:36;8.50;;;5.13;;
23561;SDS011;11959;49.418;8.728;2023-04-25T11:14:02;9.27;;;5.35;;
23561;SDS011;11959;49.418;8.728;2023-04-25T11:16:27;7.38;;;4.85;;
23561;SDS011;11959;49.418;8.728;2023-04-25T11:18:53;9.52;;;5.25;;
23561;SDS011;11959;49.418;8.728;2023-04-25T11:21:21;11.02;;;6.00;;
23561;SDS011;11959;49.418;8.728;2023-04-25T11:23:47;10.13;;;5.30;;
23561;SDS011;11959;49.418;8.728;2023-04-25T11:26:13;8.93;;;5.35;;
23561;SDS011;11959;49.418;8.728;2023-04-25T11:28:40;10.45;;;5.30;;
23561;SDS011;11959;49.418;8.728;2023-04-25T11:31:09;8.57;;;5.07;;
23561;SDS011;11959;49.418;8.728;2023-04-25T11:33:35;8.10;;;4.85;;
23561;SDS011;11959;49.418;8.728;2023-04-25T11:36:01;7.05;;;4.25;;
23561;SDS011;11959;49.418;8.728;2023-04-25T11:38:27;7.22;;;4.55;;
23561;SDS011;11959;49.418;8.728;2023-04-25T11:40:53;8.10;;;4.53;;
23561;SDS011;11959;49.418;8.728;2023-04-25T11:43:20;10.02;;;4.38;;
23561;SDS011;11959;49.418;8.728;2023-04-25T11:45:47;5.63;;;3.90;;
23561;SDS011;11959;49.418;8.728;2023-04-25T11:48:14;7.43;;;4.03;;
23561;SDS011;11959;49.418;8.728;2023-04-25T11:50:39;9.38;;;4.53;;
23561;SDS011;11959;49.418;8.728;2023-04-25T11:53:05;7.03;;;3.83;;
23561;SDS011;11959;49.418;8.728;2023-04-25T11:55:32;6.88;;;3.78;;
23561;SDS011;11959;49.418;8.728;2023-04-25T11:57:59;6.55;;;3.22;;
23561;SDS011;11959;49.418;8.728;2023-04-25T12:00:25;5.07;;;3.45;;
23561;SDS011;11959;49.418;8.728;2023-04-25T12:02:52;8.00;;;4.03;;
23561;SDS011;11959;49.418;8.728;2023-04-25T12:05:20;6.35;;;3.20;;
23561;SDS011;11959;49.418;8.728;2023-04-25T12:07:48;6.53;;;3.22;;
23561;SDS011;11959;49.418;8.728;2023-04-25T12:10:15;7.28;;;3.85;;
23561;SDS011;11959;49.418;8.728;2023-04-25T12:12:43;7.28;;;3.30;;
23561;SDS011;11959;49.418;8.728;2023-04-25T12:17:36;7.03;;;3.20;;
23561;SDS011;11959;49.418;8.728;2023-04-25T12:20:10;5.10;;;3.10;;
23561;SDS011;11959;49.418;8.728;2023-04-25T12:22:44;4.40;;;2.72;;
23561;SDS011;11959;49.418;8.728;2023-04-25T12:25:12;5.40;;;3.15;;
23561;SDS011;11959;49.418;8.728;2023-04-25T12:31:01;5.60;;;3.50;;
23561;SDS011;11959;49.418;8.728;2023-04-25T12:33:35;7.35;;;3.78;;
23561;SDS011;11959;49.418;8.728;2023-04-25T12:36:02;7.97;;;3.50;;
23561;SDS011;11959;49.418;8.728;2023-04-25T12:38:35;6.47;;;3.30;;
23561;SDS011;11959;49.418;8.728;2023-04-25T12:41:02;7.35;;;4.20;;
23561;SDS011;11959;49.418;8.728;2023-04-25T12:43:28;8.15;;;3.78;;
23561;SDS011;11959;49.418;8.728;2023-04-25T12:45:54;7.45;;;3.38;;
23561;SDS011;11959;49.418;8.728;2023-04-25T12:48:21;6.45;;;3.88;;
23561;SDS011;11959;49.418;8.728;2023-04-25T12:50:48;6.93;;;3.90;;
23561;SDS011;11959;49.418;8.728;2023-04-25T12:53:18;6.78;;;3.75;;
23561;SDS011;11959;49.418;8.728;2023-04-25T12:55:45;7.18;;;3.65;;
23561;SDS011;11959;49.418;8.728;2023-04-25T12:58:12;8.25;;;4.28;;
23561;SDS011;11959;49.418;8.728;2023-04-25T13:00:38;7.20;;;3.80;;
23561;SDS011;11959;49.418;8.728;2023-04-25T13:03:04;6.65;;;3.40;;
23561;SDS011;11959;49.418;8.728;2023-04-25T13:05:30;7.05;;;3.75;;
23561;SDS011;11959;49.418;8.728;2023-04-25T13:07:56;5.13;;;3.53;;
23561;SDS011;11959;49.418;8.728;2023-04-25T13:10:22;5.95;;;3.65;;
23561;SDS011;11959;49.418;8.728;2023-04-25T13:12:47;6.55;;;4.20;;
23561;SDS011;11959;49.418;8.728;2023-04-25T13:15:13;6.40;;;4.07;;
23561;SDS011;11959;49.418;8.728;2023-04-25T13:17:40;7.95;;;3.97;;
23561;SDS011;11959;49.418;8.728;2023-04-25T13:20:06;7.07;;;4.03;;
23561;SDS011;11959;49.418;8.728;2023-04-25T13:22:39;7.13;;;4.10;;
23561;SDS011;11959;49.418;8.728;2023-04-25T13:25:05;6.03;;;4.38;;
23561;SDS011;11959;49.418;8.728;2023-04-25T13:27:32;6.28;;;4.50;;
23561;SDS011;11959;49.418;8.728;2023-04-25T13:30:00;5.97;;;4.35;;
23561;SDS011;11959;49.418;8.728;2023-04-25T13:32:31;7.95;;;4.40;;
23561;SDS011;11959;49.418;8.728;2023-04-25T13:35:01;8.60;;;4.80;;
23561;SDS011;11959;49.418;8.728;2023-04-25T13:37:30;8.25;;;4.30;;
23561;SDS011;11959;49.418;8.728;2023-04-25T13:39:58;5.68;;;4.03;;
23561;SDS011;11959;49.418;8.728;2023-04-25T13:42:25;6.57;;;4.55;;
23561;SDS011;11959;49.418;8.728;2023-04-25T13:44:51;7.82;;;4.57;;
23561;SDS011;11959;49.418;8.728;2023-04-25T13:47:16;7.13;;;4.40;;
23561;SDS011;11959;49.418;8.728;2023-04-25T13:49:42;9.45;;;4.35;;
23561;SDS011;11959;49.418;8.728;2023-04-25T13:52:08;7.35;;;4.38;;
23561;SDS011;11959;49.418;8.728;2023-04-25T13:54:33;9.35;;;5.03;;
23561;SDS011;11959;49.418;8.728;2023-04-25T13:56:59;8.48;;;4.05;;
23561;SDS011;11959;49.418;8.728;2023-04-25T13:59:25;8.70;;;4.07;;
23561;SDS011;11959;49.418;8.728;2023-04-25T14:01:51;8.00;;;4.38;;
23561;SDS011;11959;49.418;8.728;2023-04-25T14:04:17;8.18;;;4.40;;
23561;SDS011;11959;49.418;8.728;2023-04-25T14:06:42;8.95;;;4.10;;
23561;SDS011;11959;49.418;8.728;2023-04-25T14:09:08;6.85;;;4.32;;
23561;SDS011;11959;49.418;8.728;2023-04-25T14:11:38;6.25;;;4.25;;
23561;SDS011;11959;49.418;8.728;2023-04-25T14:14:04;9.80;;;4.57;;
23561;SDS011;11959;49.418;8.728;2023-04-25T14:16:30;7.43;;;4.25;;
23561;SDS011;11959;49.418;8.728;2023-04-25T14:18:57;8.40;;;4.95;;
23561;SDS011;11959;49.418;8.728;2023-04-25T14:21:23;7.20;;;4.40;;
23561;SDS011;11959;49.418;8.728;2023-04-25T14:23:50;8.80;;;4.82;;
23561;SDS011;11959;49.418;8.728;2023-04-25T14:26:15;10.15;;;5.03;;
23561;SDS011;11959;49.418;8.728;2023-04-25T14:28:41;8.10;;;4.35;;
23561;SDS011;11959;49.418;8.728;2023-04-25T14:31:07;6.20;;;4.50;;
23561;SDS011;11959;49.418;8.728;2023-04-25T14:33:32;7.47;;;4.15;;
23561;SDS011;11959;49.418;8.728;2023-04-25T14:35:59;7.32;;;4.70;;
23561;SDS011;11959;49.418;8.728;2023-04-25T14:38:24;9.18;;;4.50;;
23561;SDS011;11959;49.418;8.728;2023-04-25T14:40:50;7.63;;;4.50;;
23561;SDS011;11959;49.418;8.728;2023-04-25T14:43:16;8.50;;;4.43;;
23561;SDS011;11959;49.418;8.728;2023-04-25T14:45:42;7.85;;;4.00;;
23561;SDS011;11959;49.418;8.728;2023-04-25T14:48:08;7.78;;;4.45;;
23561;SDS011;11959;49.418;8.728;2023-04-25T14:50:33;8.77;;;4.45;;
23561;SDS011;11959;49.418;8.728;2023-04-25T14:52:59;6.70;;;4.35;;